PWSweather.com
Personal Weather Stations
Station Observations
ILAZIOPO4
Tetto, PomeziaIT 00040

TettoPomeziaIT 00040

Lat: 41.6674809, Lon: 12.5080234

Elevation: 85

Station Type: Davis Vantage Pro2 Plus

http://pomeziameteo.it

Latest ConditionsUpdated 1:05:05 PM GMT+01:01 Sunday, Jan 20, 2019
Currently Today's Max Today's Min Today's Average
Temperature 50.8°F10.4°C 51.2°F10.7°C 44.5°F6.9°C 46.2°F7.9°C
Dew Point 43.1°F6.2°C 43.8°F6.6°C 38.4°F3.6°C 41.7°F5.4°C
Winds Calm Calm 12.0 mph -19.3 kmh - - 0.7 mph 1.1 kmh
Wind Gusts 15.0 mph24.1 kmh 16.0 mph25.7 kmh - -
Humidity 75% 92% 74% 85%
Pressure 29.86 in1011.2 mb 29.91 in1012.9 mb 29.86 in1011.2 mb -
Precipitation - 0.07 in1.8 mm - -
Hour Temp Dew Point Humidity Winds Wind Gusts Pressure Precip Precip Rate Daily Precip Total
01:05 PM 50.8°F10.4°C 43.1°F6.2°C 75% Calm Calm 15.0 mph24.1 kmh 29.86 in1011.2 mb 0.00 in0.0 mm 0.00 in0.0 mm 0.07 in1.8 mm
01:00 PM 50.9°F10.5°C 43.6°F6.4°C 76% Calm Calm 12.0 mph19.3 kmh 29.86 in1011.2 mb 0.00 in0.0 mm 0.00 in0.0 mm 0.07 in1.8 mm
12:55 PM 50.9°F10.5°C 43.2°F6.2°C 75% 10.0 mph ESE16.1 kmh ESE 11.0 mph17.7 kmh 29.86 in1011.2 mb 0.00 in0.0 mm 0.00 in0.0 mm 0.07 in1.8 mm
12:50 PM 51.0°F10.6°C 43.0°F6.1°C 74% 9.0 mph SE14.5 kmh SE 14.0 mph22.5 kmh 29.86 in1011.2 mb 0.00 in0.0 mm 0.00 in0.0 mm 0.07 in1.8 mm
12:45 PM 51.1°F10.6°C 43.4°F6.3°C 75% 8.0 mph ESE12.9 kmh ESE 16.0 mph25.7 kmh 29.86 in1011.2 mb 0.00 in0.0 mm 0.00 in0.0 mm 0.07 in1.8 mm
12:40 PM 51.1°F10.6°C 43.4°F6.3°C 75% 7.0 mph SE11.3 kmh SE 12.0 mph19.3 kmh 29.87 in1011.5 mb 0.00 in0.0 mm 0.00 in0.0 mm 0.07 in1.8 mm
12:35 PM 51.1°F10.6°C 43.1°F6.2°C 74% Calm Calm 14.0 mph22.5 kmh 29.87 in1011.5 mb 0.00 in0.0 mm 0.00 in0.0 mm 0.07 in1.8 mm
12:30 PM 51.0°F10.6°C 43.3°F6.3°C 75% Calm Calm 13.0 mph20.9 kmh 29.87 in1011.5 mb 0.00 in0.0 mm 0.00 in0.0 mm 0.07 in1.8 mm
12:25 PM 51.0°F10.6°C 43.0°F6.1°C 74% 11.0 mph ESE17.7 kmh ESE 15.0 mph24.1 kmh 29.87 in1011.5 mb 0.00 in0.0 mm 0.00 in0.0 mm 0.07 in1.8 mm
12:20 PM 51.1°F10.6°C 43.4°F6.3°C 75% 3.0 mph SE4.8 kmh SE 15.0 mph24.1 kmh 29.87 in1011.5 mb 0.00 in0.0 mm 0.00 in0.0 mm 0.07 in1.8 mm
12:15 PM 51.2°F10.7°C 43.8°F6.6°C 76% Calm Calm 13.0 mph20.9 kmh 29.88 in1011.9 mb 0.00 in0.0 mm 0.00 in0.0 mm 0.07 in1.8 mm
12:10 PM 51.1°F10.6°C 43.8°F6.6°C 76% 1.0 mph SE1.6 kmh SE 16.0 mph25.7 kmh 29.88 in1011.9 mb 0.01 in0.3 mm 0.00 in0.0 mm 0.07 in1.8 mm
12:05 PM 50.9°F10.5°C 43.6°F6.4°C 76% 9.0 mph SE14.5 kmh SE 13.0 mph20.9 kmh 29.88 in1011.9 mb 0.01 in0.3 mm 0.00 in0.0 mm 0.07 in1.8 mm
12:00 PM 50.6°F10.3°C 43.3°F6.3°C 76% 12.0 mph SE19.3 kmh SE 15.0 mph24.1 kmh 29.88 in1011.9 mb 0.01 in0.3 mm 0.00 in0.0 mm 0.07 in1.8 mm
11:55 AM 50.5°F10.3°C 43.2°F6.2°C 76% Calm Calm 16.0 mph25.7 kmh 29.88 in1011.9 mb 0.01 in0.3 mm 0.00 in0.0 mm 0.07 in1.8 mm
11:50 AM 50.3°F10.2°C 43.3°F6.3°C 77% 7.0 mph ESE11.3 kmh ESE 7.0 mph11.3 kmh 29.88 in1011.9 mb 0.01 in0.3 mm 0.00 in0.0 mm 0.07 in1.8 mm
11:45 AM 50.3°F10.2°C 43.3°F6.3°C 77% Calm Calm 9.0 mph14.5 kmh 29.88 in1011.9 mb 0.01 in0.3 mm 0.00 in0.0 mm 0.07 in1.8 mm
11:40 AM 50.2°F10.1°C 42.9°F6.1°C 76% Calm Calm 13.0 mph20.9 kmh 29.88 in1011.9 mb 0.01 in0.3 mm 0.00 in0.0 mm 0.07 in1.8 mm
11:35 AM 50.2°F10.1°C 43.2°F6.2°C 77% 2.0 mph SE3.2 kmh SE 15.0 mph24.1 kmh 29.88 in1011.9 mb 0.01 in0.3 mm 0.00 in0.0 mm 0.07 in1.8 mm
11:30 AM 50.1°F10.1°C 43.1°F6.2°C 77% 8.0 mph SE12.9 kmh SE 14.0 mph22.5 kmh 29.89 in1012.2 mb 0.01 in0.3 mm 0.00 in0.0 mm 0.07 in1.8 mm
11:25 AM 49.9°F9.9°C 43.6°F6.4°C 79% Calm Calm 14.0 mph22.5 kmh 29.89 in1012.2 mb 0.01 in0.3 mm 0.00 in0.0 mm 0.07 in1.8 mm
11:20 AM 49.6°F9.8°C 43.3°F6.3°C 79% 10.0 mph ESE16.1 kmh ESE 14.0 mph22.5 kmh 29.89 in1012.2 mb 0.01 in0.3 mm 0.00 in0.0 mm 0.07 in1.8 mm
11:15 AM 49.3°F9.6°C 43.3°F6.3°C 80% 9.0 mph ESE14.5 kmh ESE 14.0 mph22.5 kmh 29.89 in1012.2 mb 0.01 in0.3 mm 0.12 in3.0 mm 0.07 in1.8 mm
11:10 AM 49.0°F9.4°C 43.4°F6.3°C 81% 1.0 mph SSE1.6 kmh SSE 11.0 mph17.7 kmh 29.89 in1012.2 mb 0.00 in0.0 mm 0.00 in0.0 mm 0.06 in1.5 mm
11:05 AM 48.8°F9.3°C 43.2°F6.2°C 81% Calm Calm 11.0 mph17.7 kmh 29.89 in1012.2 mb 0.00 in0.0 mm 0.00 in0.0 mm 0.06 in1.5 mm
11:00 AM 48.5°F9.2°C 43.2°F6.2°C 82% 8.0 mph ESE12.9 kmh ESE 10.0 mph16.1 kmh 29.89 in1012.2 mb 0.00 in0.0 mm 0.00 in0.0 mm 0.06 in1.5 mm
10:55 AM 48.3°F9.1°C 43.3°F6.3°C 83% Calm Calm 8.0 mph12.9 kmh 29.89 in1012.2 mb 0.00 in0.0 mm 0.00 in0.0 mm 0.06 in1.5 mm
10:50 AM 48.2°F9.0°C 43.2°F6.2°C 83% Calm Calm 7.0 mph11.3 kmh 29.89 in1012.2 mb 0.00 in0.0 mm 0.00 in0.0 mm 0.06 in1.5 mm
10:45 AM 48.0°F8.9°C 43.3°F6.3°C 84% Calm Calm 3.0 mph4.8 kmh 29.90 in1012.5 mb 0.00 in0.0 mm 0.00 in0.0 mm 0.06 in1.5 mm
10:40 AM 47.8°F8.8°C 43.5°F6.4°C 85% Calm Calm 1.0 mph1.6 kmh 29.90 in1012.5 mb 0.00 in0.0 mm 0.00 in0.0 mm 0.06 in1.5 mm
10:35 AM 47.7°F8.7°C 43.4°F6.3°C 85% Calm Calm 2.0 mph3.2 kmh 29.90 in1012.5 mb 0.00 in0.0 mm 0.00 in0.0 mm 0.06 in1.5 mm
10:30 AM 47.5°F8.6°C 43.2°F6.2°C 85% Calm Calm 1.0 mph1.6 kmh 29.90 in1012.5 mb 0.00 in0.0 mm 0.00 in0.0 mm 0.06 in1.5 mm
10:25 AM 47.4°F8.6°C 43.4°F6.3°C 86% Calm Calm -- 29.90 in1012.5 mb 0.00 in0.0 mm 0.00 in0.0 mm 0.06 in1.5 mm
10:20 AM 47.3°F8.5°C 43.3°F6.3°C 86% Calm Calm -- 29.89 in1012.2 mb 0.00 in0.0 mm 0.00 in0.0 mm 0.06 in1.5 mm
10:15 AM 47.1°F8.4°C 43.4°F6.3°C 87% Calm Calm 1.0 mph1.6 kmh 29.89 in1012.2 mb 0.00 in0.0 mm 0.00 in0.0 mm 0.06 in1.5 mm
10:10 AM 46.9°F8.3°C 43.5°F6.4°C 88% Calm Calm -- 29.89 in1012.2 mb 0.00 in0.0 mm 0.00 in0.0 mm 0.06 in1.5 mm
10:05 AM 46.7°F8.2°C 43.3°F6.3°C 88% Calm Calm 1.0 mph1.6 kmh 29.89 in1012.2 mb 0.00 in0.0 mm 0.00 in0.0 mm 0.06 in1.5 mm
10:00 AM 46.6°F8.1°C 43.5°F6.4°C 89% Calm Calm 2.0 mph3.2 kmh 29.89 in1012.2 mb 0.00 in0.0 mm 0.00 in0.0 mm 0.06 in1.5 mm
09:55 AM 46.4°F8.0°C 43.3°F6.3°C 89% Calm Calm -- 29.89 in1012.2 mb 0.00 in0.0 mm 0.00 in0.0 mm 0.06 in1.5 mm
09:50 AM 46.2°F7.9°C 43.1°F6.2°C 89% Calm Calm 1.0 mph1.6 kmh 29.89 in1012.2 mb 0.00 in0.0 mm 0.00 in0.0 mm 0.06 in1.5 mm
09:45 AM 46.1°F7.8°C 43.3°F6.3°C 90% Calm Calm 1.0 mph1.6 kmh 29.89 in1012.2 mb 0.00 in0.0 mm 0.00 in0.0 mm 0.06 in1.5 mm
09:40 AM 46.0°F7.8°C 43.2°F6.2°C 90% Calm Calm 1.0 mph1.6 kmh 29.89 in1012.2 mb 0.00 in0.0 mm 0.00 in0.0 mm 0.06 in1.5 mm
09:35 AM 45.9°F7.7°C 43.1°F6.2°C 90% Calm Calm -- 29.89 in1012.2 mb 0.00 in0.0 mm 0.00 in0.0 mm 0.06 in1.5 mm
09:30 AM 45.8°F7.7°C 43.0°F6.1°C 90% Calm Calm -- 29.89 in1012.2 mb 0.00 in0.0 mm 0.00 in0.0 mm 0.06 in1.5 mm
09:25 AM 45.8°F7.7°C 43.3°F6.3°C 91% Calm Calm -- 29.89 in1012.2 mb 0.00 in0.0 mm 0.00 in0.0 mm 0.06 in1.5 mm
09:20 AM 45.7°F7.6°C 43.2°F6.2°C 91% Calm Calm -- 29.89 in1012.2 mb 0.00 in0.0 mm 0.00 in0.0 mm 0.06 in1.5 mm
09:15 AM 45.6°F7.6°C 43.1°F6.2°C 91% Calm Calm -- 29.89 in1012.2 mb 0.00 in0.0 mm 0.00 in0.0 mm 0.06 in1.5 mm
09:10 AM 45.6°F7.6°C 43.1°F6.2°C 91% Calm Calm -- 29.89 in1012.2 mb 0.00 in0.0 mm 0.00 in0.0 mm 0.06 in1.5 mm
09:05 AM 45.6°F7.6°C 43.1°F6.2°C 91% Calm Calm -- 29.89 in1012.2 mb 0.00 in0.0 mm 0.00 in0.0 mm 0.06 in1.5 mm
09:00 AM 45.5°F7.5°C 43.3°F6.3°C 92% Calm Calm -- 29.89 in1012.2 mb 0.00 in0.0 mm 0.00 in0.0 mm 0.06 in1.5 mm
08:55 AM 45.4°F7.4°C 42.9°F6.1°C 91% Calm Calm -- 29.89 in1012.2 mb 0.00 in0.0 mm 0.00 in0.0 mm 0.06 in1.5 mm
08:50 AM 45.2°F7.3°C 42.7°F5.9°C 91% Calm Calm -- 29.89 in1012.2 mb 0.00 in0.0 mm 0.00 in0.0 mm 0.06 in1.5 mm
08:45 AM 45.2°F7.3°C 42.7°F5.9°C 91% Calm Calm -- 29.89 in1012.2 mb 0.00 in0.0 mm 0.00 in0.0 mm 0.06 in1.5 mm
08:40 AM 45.1°F7.3°C 42.6°F5.9°C 91% Calm Calm 6.0 mph9.7 kmh 29.89 in1012.2 mb 0.00 in0.0 mm 0.00 in0.0 mm 0.06 in1.5 mm
08:35 AM 45.1°F7.3°C 42.9°F6.1°C 92% Calm Calm -- 29.89 in1012.2 mb 0.00 in0.0 mm 0.00 in0.0 mm 0.06 in1.5 mm
08:30 AM 45.0°F7.2°C 42.8°F6.0°C 92% Calm Calm 2.0 mph3.2 kmh 29.89 in1012.2 mb 0.00 in0.0 mm 0.00 in0.0 mm 0.06 in1.5 mm
08:25 AM 45.0°F7.2°C 42.8°F6.0°C 92% Calm Calm -- 29.89 in1012.2 mb 0.00 in0.0 mm 0.00 in0.0 mm 0.06 in1.5 mm
08:20 AM 45.0°F7.2°C 42.8°F6.0°C 92% Calm Calm 2.0 mph3.2 kmh 29.89 in1012.2 mb 0.01 in0.3 mm 0.00 in0.0 mm 0.06 in1.5 mm
08:15 AM 45.0°F7.2°C 42.8°F6.0°C 92% 2.0 mph E3.2 kmh E 1.0 mph1.6 kmh 29.89 in1012.2 mb 0.02 in0.5 mm 0.00 in0.0 mm 0.06 in1.5 mm
08:10 AM 45.0°F7.2°C 42.8°F6.0°C 92% Calm Calm -- 29.89 in1012.2 mb 0.02 in0.5 mm 0.00 in0.0 mm 0.06 in1.5 mm
08:05 AM 45.0°F7.2°C 42.8°F6.0°C 92% Calm Calm 1.0 mph1.6 kmh 29.89 in1012.2 mb 0.02 in0.5 mm 0.00 in0.0 mm 0.06 in1.5 mm
08:00 AM 44.9°F7.2°C 42.4°F5.8°C 91% Calm Calm -- 29.89 in1012.2 mb 0.02 in0.5 mm 0.00 in0.0 mm 0.06 in1.5 mm
07:55 AM 44.9°F7.2°C 42.7°F5.9°C 92% Calm Calm -- 29.89 in1012.2 mb 0.02 in0.5 mm 0.00 in0.0 mm 0.06 in1.5 mm
07:50 AM 44.8°F7.1°C 42.3°F5.7°C 91% Calm Calm -- 29.89 in1012.2 mb 0.02 in0.5 mm 0.00 in0.0 mm 0.06 in1.5 mm
07:45 AM 44.9°F7.2°C 42.4°F5.8°C 91% Calm Calm -- 29.89 in1012.2 mb 0.02 in0.5 mm 0.00 in0.0 mm 0.06 in1.5 mm
07:40 AM 44.9°F7.2°C 42.4°F5.8°C 91% Calm Calm -- 29.89 in1012.2 mb 0.03 in0.8 mm 0.00 in0.0 mm 0.06 in1.5 mm
07:35 AM 44.9°F7.2°C 42.4°F5.8°C 91% Calm Calm -- 29.89 in1012.2 mb 0.03 in0.8 mm 0.00 in0.0 mm 0.06 in1.5 mm
07:30 AM 45.0°F7.2°C 42.5°F5.8°C 91% Calm Calm -- 29.89 in1012.2 mb 0.03 in0.8 mm 0.00 in0.0 mm 0.06 in1.5 mm
07:25 AM 45.0°F7.2°C 42.5°F5.8°C 91% Calm Calm 2.0 mph3.2 kmh 29.88 in1011.9 mb 0.03 in0.8 mm 0.12 in3.0 mm 0.06 in1.5 mm
07:20 AM 45.0°F7.2°C 42.5°F5.8°C 91% Calm Calm 4.0 mph6.4 kmh 29.88 in1011.9 mb 0.02 in0.5 mm 0.00 in0.0 mm 0.06 in1.5 mm
07:15 AM 45.1°F7.3°C 42.3°F5.7°C 90% Calm Calm -- 29.88 in1011.9 mb 0.02 in0.5 mm 0.00 in0.0 mm 0.05 in1.3 mm
07:10 AM 45.1°F7.3°C 42.3°F5.7°C 90% Calm Calm 1.0 mph1.6 kmh 29.88 in1011.9 mb 0.02 in0.5 mm 0.00 in0.0 mm 0.05 in1.3 mm
07:05 AM 45.1°F7.3°C 42.3°F5.7°C 90% Calm Calm -- 29.88 in1011.9 mb 0.02 in0.5 mm 0.00 in0.0 mm 0.05 in1.3 mm
07:00 AM 45.2°F7.3°C 42.4°F5.8°C 90% 1.0 mph SE1.6 kmh SE 6.0 mph9.7 kmh 29.88 in1011.9 mb 0.02 in0.5 mm 0.00 in0.0 mm 0.05 in1.3 mm
06:55 AM 45.2°F7.3°C 42.4°F5.8°C 90% Calm Calm 1.0 mph1.6 kmh 29.88 in1011.9 mb 0.02 in0.5 mm 0.00 in0.0 mm 0.05 in1.3 mm
06:50 AM 45.2°F7.3°C 42.1°F5.6°C 89% Calm Calm -- 29.88 in1011.9 mb 0.02 in0.5 mm 0.00 in0.0 mm 0.05 in1.3 mm
06:45 AM 45.3°F7.4°C 42.2°F5.7°C 89% Calm Calm 5.0 mph8.0 kmh 29.88 in1011.9 mb 0.02 in0.5 mm 0.12 in3.0 mm 0.04 in1.0 mm
06:40 AM 45.3°F7.4°C 42.2°F5.7°C 89% Calm Calm 3.0 mph4.8 kmh 29.88 in1011.9 mb 0.01 in0.3 mm 0.00 in0.0 mm 0.03 in0.8 mm
06:35 AM 45.4°F7.4°C 42.0°F5.6°C 88% Calm Calm -- 29.88 in1011.9 mb 0.01 in0.3 mm 0.00 in0.0 mm 0.03 in0.8 mm
06:30 AM 45.4°F7.4°C 42.0°F5.6°C 88% Calm Calm -- 29.88 in1011.9 mb 0.01 in0.3 mm 0.00 in0.0 mm 0.03 in0.8 mm
06:25 AM 45.4°F7.4°C 42.0°F5.6°C 88% Calm Calm -- 29.88 in1011.9 mb 0.02 in0.5 mm 0.00 in0.0 mm 0.03 in0.8 mm
06:20 AM 45.4°F7.4°C 42.0°F5.6°C 88% Calm Calm -- 29.88 in1011.9 mb 0.02 in0.5 mm 0.00 in0.0 mm 0.03 in0.8 mm
06:15 AM 45.5°F7.5°C 42.1°F5.6°C 88% Calm Calm -- 29.88 in1011.9 mb 0.02 in0.5 mm 0.00 in0.0 mm 0.03 in0.8 mm
06:10 AM 45.5°F7.5°C 42.1°F5.6°C 88% Calm Calm -- 29.88 in1011.9 mb 0.02 in0.5 mm 0.12 in3.0 mm 0.03 in0.8 mm
06:05 AM 45.5°F7.5°C 42.1°F5.6°C 88% Calm Calm -- 29.88 in1011.9 mb 0.01 in0.3 mm 0.00 in0.0 mm 0.02 in0.5 mm
06:00 AM 45.5°F7.5°C 42.1°F5.6°C 88% Calm Calm -- 29.88 in1011.9 mb 0.01 in0.3 mm 0.00 in0.0 mm 0.02 in0.5 mm
05:55 AM 45.5°F7.5°C 41.8°F5.4°C 87% Calm Calm -- 29.88 in1011.9 mb 0.01 in0.3 mm 0.00 in0.0 mm 0.02 in0.5 mm
05:50 AM 45.6°F7.6°C 41.9°F5.5°C 87% Calm Calm -- 29.87 in1011.5 mb 0.01 in0.3 mm 0.00 in0.0 mm 0.02 in0.5 mm
05:45 AM 45.6°F7.6°C 41.9°F5.5°C 87% Calm Calm 1.0 mph1.6 kmh 29.87 in1011.5 mb 0.01 in0.3 mm 0.00 in0.0 mm 0.02 in0.5 mm
05:40 AM 45.7°F7.6°C 42.0°F5.6°C 87% Calm Calm -- 29.87 in1011.5 mb 0.01 in0.3 mm 0.00 in0.0 mm 0.02 in0.5 mm
05:35 AM 45.7°F7.6°C 42.0°F5.6°C 87% Calm Calm -- 29.87 in1011.5 mb 0.01 in0.3 mm 0.00 in0.0 mm 0.02 in0.5 mm
05:30 AM 45.8°F7.7°C 42.1°F5.6°C 87% Calm Calm -- 29.87 in1011.5 mb 0.01 in0.3 mm 0.12 in3.0 mm 0.02 in0.5 mm
05:25 AM 45.7°F7.6°C 42.0°F5.6°C 87% Calm Calm -- 29.87 in1011.5 mb 0.00 in0.0 mm 0.00 in0.0 mm 0.02 in0.5 mm
05:20 AM 45.6°F7.6°C 41.9°F5.5°C 87% Calm Calm -- 29.87 in1011.5 mb 0.00 in0.0 mm 0.00 in0.0 mm 0.02 in0.5 mm
05:15 AM 45.5°F7.5°C 41.8°F5.4°C 87% Calm Calm -- 29.87 in1011.5 mb 0.00 in0.0 mm 0.00 in0.0 mm 0.02 in0.5 mm
05:10 AM 45.4°F7.4°C 42.0°F5.6°C 88% Calm Calm -- 29.87 in1011.5 mb 0.00 in0.0 mm 0.00 in0.0 mm 0.02 in0.5 mm
05:05 AM 45.3°F7.4°C 41.9°F5.5°C 88% Calm Calm -- 29.87 in1011.5 mb 0.00 in0.0 mm 0.00 in0.0 mm 0.02 in0.5 mm
05:00 AM 45.3°F7.4°C 41.9°F5.5°C 88% Calm Calm 1.0 mph1.6 kmh 29.87 in1011.5 mb 0.00 in0.0 mm 0.00 in0.0 mm 0.02 in0.5 mm
04:55 AM 45.2°F7.3°C 41.8°F5.4°C 88% Calm Calm -- 29.87 in1011.5 mb 0.00 in0.0 mm 0.00 in0.0 mm 0.02 in0.5 mm
04:50 AM 45.0°F7.2°C 41.3°F5.2°C 87% Calm Calm -- 29.88 in1011.9 mb 0.00 in0.0 mm 0.00 in0.0 mm 0.02 in0.5 mm
04:45 AM 45.1°F7.3°C 41.4°F5.2°C 87% Calm Calm 1.0 mph1.6 kmh 29.88 in1011.9 mb 0.00 in0.0 mm 0.00 in0.0 mm 0.02 in0.5 mm
04:40 AM 45.1°F7.3°C 41.4°F5.2°C 87% Calm Calm -- 29.88 in1011.9 mb 0.00 in0.0 mm 0.00 in0.0 mm 0.02 in0.5 mm
04:35 AM 45.1°F7.3°C 41.4°F5.2°C 87% Calm Calm -- 29.88 in1011.9 mb 0.00 in0.0 mm 0.00 in0.0 mm 0.02 in0.5 mm
04:30 AM 45.1°F7.3°C 41.4°F5.2°C 87% Calm Calm -- 29.88 in1011.9 mb 0.00 in0.0 mm 0.00 in0.0 mm 0.02 in0.5 mm
04:25 AM 45.1°F7.3°C 41.4°F5.2°C 87% Calm Calm -- 29.88 in1011.9 mb 0.00 in0.0 mm 0.00 in0.0 mm 0.02 in0.5 mm
04:20 AM 45.1°F7.3°C 41.4°F5.2°C 87% Calm Calm -- 29.88 in1011.9 mb 0.00 in0.0 mm 0.00 in0.0 mm 0.02 in0.5 mm
04:15 AM 45.1°F7.3°C 41.1°F5.1°C 86% Calm Calm -- 29.88 in1011.9 mb 0.01 in0.3 mm 0.00 in0.0 mm 0.02 in0.5 mm
04:10 AM 45.1°F7.3°C 41.1°F5.1°C 86% Calm Calm 1.0 mph1.6 kmh 29.88 in1011.9 mb 0.01 in0.3 mm 0.00 in0.0 mm 0.02 in0.5 mm
04:05 AM 45.1°F7.3°C 41.1°F5.1°C 86% Calm Calm -- 29.88 in1011.9 mb 0.01 in0.3 mm 0.00 in0.0 mm 0.02 in0.5 mm
04:00 AM 45.2°F7.3°C 41.2°F5.1°C 86% Calm Calm -- 29.88 in1011.9 mb 0.01 in0.3 mm 0.00 in0.0 mm 0.02 in0.5 mm
03:55 AM 45.2°F7.3°C 41.2°F5.1°C 86% Calm Calm 4.0 mph6.4 kmh 29.88 in1011.9 mb 0.01 in0.3 mm 0.00 in0.0 mm 0.02 in0.5 mm
03:50 AM 45.2°F7.3°C 41.2°F5.1°C 86% Calm Calm -- 29.88 in1011.9 mb 0.01 in0.3 mm 0.00 in0.0 mm 0.02 in0.5 mm
03:45 AM 45.1°F7.3°C 40.8°F4.9°C 85% Calm Calm -- 29.88 in1011.9 mb 0.01 in0.3 mm 0.00 in0.0 mm 0.02 in0.5 mm
03:40 AM 45.2°F7.3°C 40.9°F4.9°C 85% Calm Calm 7.0 mph11.3 kmh 29.88 in1011.9 mb 0.01 in0.3 mm 0.00 in0.0 mm 0.02 in0.5 mm
03:35 AM 45.3°F7.4°C 41.0°F5.0°C 85% Calm Calm 6.0 mph9.7 kmh 29.88 in1011.9 mb 0.01 in0.3 mm 0.00 in0.0 mm 0.02 in0.5 mm
03:30 AM 45.4°F7.4°C 41.1°F5.1°C 85% Calm Calm 7.0 mph11.3 kmh 29.88 in1011.9 mb 0.01 in0.3 mm 0.00 in0.0 mm 0.02 in0.5 mm
03:25 AM 45.5°F7.5°C 41.2°F5.1°C 85% Calm Calm 9.0 mph14.5 kmh 29.89 in1012.2 mb 0.01 in0.3 mm 0.00 in0.0 mm 0.02 in0.5 mm
03:20 AM 45.3°F7.4°C 41.0°F5.0°C 85% Calm Calm 10.0 mph16.1 kmh 29.89 in1012.2 mb 0.01 in0.3 mm 0.12 in3.0 mm 0.02 in0.5 mm
03:15 AM 45.0°F7.2°C 40.4°F4.7°C 84% Calm Calm 7.0 mph11.3 kmh 29.89 in1012.2 mb 0.00 in0.0 mm 0.00 in0.0 mm 0.01 in0.3 mm
03:10 AM 44.7°F7.1°C 40.1°F4.5°C 84% Calm Calm 5.0 mph8.0 kmh 29.89 in1012.2 mb 0.00 in0.0 mm 0.00 in0.0 mm 0.01 in0.3 mm
03:05 AM 44.8°F7.1°C 39.9°F4.4°C 83% Calm Calm 2.0 mph3.2 kmh 29.89 in1012.2 mb 0.00 in0.0 mm 0.00 in0.0 mm 0.01 in0.3 mm
03:00 AM 44.9°F7.2°C 40.0°F4.4°C 83% Calm Calm 1.0 mph1.6 kmh 29.89 in1012.2 mb 0.00 in0.0 mm 0.00 in0.0 mm 0.01 in0.3 mm
02:55 AM 44.9°F7.2°C 40.0°F4.4°C 83% Calm Calm -- 29.89 in1012.2 mb 0.00 in0.0 mm 0.00 in0.0 mm 0.01 in0.3 mm
02:50 AM 45.0°F7.2°C 40.1°F4.5°C 83% Calm Calm -- 29.89 in1012.2 mb 0.00 in0.0 mm 0.00 in0.0 mm 0.01 in0.3 mm
02:45 AM 45.0°F7.2°C 39.8°F4.3°C 82% Calm Calm -- 29.89 in1012.2 mb 0.01 in0.3 mm 0.00 in0.0 mm 0.01 in0.3 mm
02:40 AM 45.1°F7.3°C 39.9°F4.4°C 82% Calm Calm -- 29.89 in1012.2 mb 0.01 in0.3 mm 0.00 in0.0 mm 0.01 in0.3 mm
02:35 AM 45.2°F7.3°C 40.0°F4.4°C 82% Calm Calm -- 29.89 in1012.2 mb 0.01 in0.3 mm 0.00 in0.0 mm 0.01 in0.3 mm
02:30 AM 45.3°F7.4°C 40.1°F4.5°C 82% Calm Calm -- 29.89 in1012.2 mb 0.01 in0.3 mm 0.00 in0.0 mm 0.01 in0.3 mm
02:25 AM 45.3°F7.4°C 40.1°F4.5°C 82% Calm Calm -- 29.89 in1012.2 mb 0.01 in0.3 mm 0.00 in0.0 mm 0.01 in0.3 mm
02:20 AM 45.4°F7.4°C 40.2°F4.6°C 82% Calm Calm -- 29.89 in1012.2 mb 0.01 in0.3 mm 0.00 in0.0 mm 0.01 in0.3 mm
02:15 AM 45.3°F7.4°C 39.8°F4.3°C 81% Calm Calm -- 29.89 in1012.2 mb 0.01 in0.3 mm 0.00 in0.0 mm 0.01 in0.3 mm
02:10 AM 45.3°F7.4°C 39.8°F4.3°C 81% Calm Calm -- 29.89 in1012.2 mb 0.01 in0.3 mm 0.00 in0.0 mm 0.01 in0.3 mm
02:05 AM 45.3°F7.4°C 39.8°F4.3°C 81% Calm Calm -- 29.89 in1012.2 mb 0.01 in0.3 mm 0.00 in0.0 mm 0.01 in0.3 mm
02:00 AM 45.2°F7.3°C 39.7°F4.3°C 81% Calm Calm -- 29.89 in1012.2 mb 0.01 in0.3 mm 0.00 in0.0 mm 0.01 in0.3 mm
01:55 AM 45.1°F7.3°C 39.6°F4.2°C 81% Calm Calm -- 29.89 in1012.2 mb 0.01 in0.3 mm 0.00 in0.0 mm 0.01 in0.3 mm
01:50 AM 45.1°F7.3°C 39.6°F4.2°C 81% Calm Calm -- 29.89 in1012.2 mb 0.01 in0.3 mm 0.12 in3.0 mm 0.01 in0.3 mm
01:45 AM 45.0°F7.2°C 39.2°F4.0°C 80% Calm Calm -- 29.89 in1012.2 mb 0.00 in0.0 mm 0.00 in0.0 mm 0.00 in0.0 mm
01:40 AM 44.9°F7.2°C 39.1°F3.9°C 80% Calm Calm -- 29.89 in1012.2 mb 0.00 in0.0 mm 0.00 in0.0 mm 0.00 in0.0 mm
01:35 AM 44.9°F7.2°C 39.1°F3.9°C 80% Calm Calm -- 29.89 in1012.2 mb 0.00 in0.0 mm 0.00 in0.0 mm 0.00 in0.0 mm
01:30 AM 44.8°F7.1°C 39.0°F3.9°C 80% Calm Calm -- 29.89 in1012.2 mb 0.00 in0.0 mm 0.00 in0.0 mm 0.00 in0.0 mm
01:25 AM 44.7°F7.1°C 38.9°F3.8°C 80% Calm Calm -- 29.89 in1012.2 mb 0.00 in0.0 mm 0.00 in0.0 mm 0.00 in0.0 mm
01:20 AM 44.7°F7.1°C 38.9°F3.8°C 80% Calm Calm -- 29.89 in1012.2 mb 0.00 in0.0 mm 0.00 in0.0 mm 0.00 in0.0 mm
01:15 AM 44.6°F7.0°C 38.8°F3.8°C 80% Calm Calm -- 29.89 in1012.2 mb 0.00 in0.0 mm 0.00 in0.0 mm 0.00 in0.0 mm
01:10 AM 44.6°F7.0°C 38.8°F3.8°C 80% Calm Calm -- 29.89 in1012.2 mb 0.00 in0.0 mm 0.00 in0.0 mm 0.00 in0.0 mm
01:05 AM 44.6°F7.0°C 38.8°F3.8°C 80% Calm Calm -- 29.90 in1012.5 mb 0.00 in0.0 mm 0.00 in0.0 mm 0.00 in0.0 mm
01:00 AM 44.5°F6.9°C 38.7°F3.7°C 80% Calm Calm -- 29.90 in1012.5 mb 0.00 in0.0 mm 0.00 in0.0 mm 0.00 in0.0 mm
12:55 AM 44.5°F6.9°C 38.7°F3.7°C 80% Calm Calm -- 29.90 in1012.5 mb 0.00 in0.0 mm 0.00 in0.0 mm 0.00 in0.0 mm
12:50 AM 44.5°F6.9°C 38.7°F3.7°C 80% Calm Calm -- 29.90 in1012.5 mb 0.00 in0.0 mm 0.00 in0.0 mm 0.00 in0.0 mm
12:45 AM 44.6°F7.0°C 38.4°F3.6°C 79% Calm Calm -- 29.90 in1012.5 mb 0.00 in0.0 mm 0.00 in0.0 mm 0.00 in0.0 mm
12:40 AM 44.7°F7.1°C 38.5°F3.6°C 79% Calm Calm -- 29.90 in1012.5 mb 0.00 in0.0 mm 0.00 in0.0 mm 0.00 in0.0 mm
12:35 AM 44.9°F7.2°C 38.7°F3.7°C 79% Calm Calm -- 29.90 in1012.5 mb 0.00 in0.0 mm 0.00 in0.0 mm 0.00 in0.0 mm
12:30 AM 45.0°F7.2°C 38.8°F3.8°C 79% Calm Calm -- 29.91 in1012.9 mb 0.00 in0.0 mm 0.00 in0.0 mm 0.00 in0.0 mm
12:25 AM 45.0°F7.2°C 38.8°F3.8°C 79% Calm Calm -- 29.91 in1012.9 mb 0.00 in0.0 mm 0.00 in0.0 mm 0.00 in0.0 mm
12:20 AM 44.9°F7.2°C 38.7°F3.7°C 79% Calm Calm -- 29.91 in1012.9 mb 0.00 in0.0 mm 0.00 in0.0 mm 0.00 in0.0 mm
12:15 AM 44.8°F7.1°C 39.0°F3.9°C 80% Calm Calm -- 29.91 in1012.9 mb 0.00 in0.0 mm 0.00 in0.0 mm 0.00 in0.0 mm
12:10 AM 44.7°F7.1°C 38.9°F3.8°C 80% Calm Calm -- 29.91 in1012.9 mb 0.00 in0.0 mm 0.00 in0.0 mm 0.00 in0.0 mm
12:05 AM 44.7°F7.1°C 38.9°F3.8°C 80% Calm Calm -- 29.91 in1012.9 mb 0.00 in0.0 mm 0.00 in0.0 mm 0.00 in0.0 mm
12:00 AM 44.7°F7.1°C 38.9°F3.8°C 80% Calm Calm -- 29.91 in1012.9 mb 0.00 in0.0 mm 0.00 in0.0 mm 0.13 in3.3 mm